sensor_id;sensor_type;location;lat;lon;timestamp;P1;durP1;ratioP1;P2;durP2;ratioP2
30247;SDS011;17063;50.892;4.702;2023-05-07T00:01:05;10.20;;;4.47;;
30247;SDS011;17063;50.892;4.702;2023-05-07T00:03:32;7.30;;;3.60;;
30247;SDS011;17063;50.892;4.702;2023-05-07T00:05:59;8.77;;;3.57;;
30247;SDS011;17063;50.892;4.702;2023-05-07T00:08:26;7.57;;;3.67;;
30247;SDS011;17063;50.892;4.702;2023-05-07T00:10:53;9.30;;;3.67;;
30247;SDS011;17063;50.892;4.702;2023-05-07T00:13:20;7.80;;;3.70;;
30247;SDS011;17063;50.892;4.702;2023-05-07T00:15:47;4.23;;;3.20;;
30247;SDS011;17063;50.892;4.702;2023-05-07T00:18:14;5.40;;;3.73;;
30247;SDS011;17063;50.892;4.702;2023-05-07T00:20:42;4.73;;;3.50;;
30247;SDS011;17063;50.892;4.702;2023-05-07T00:23:15;7.20;;;3.70;;
30247;SDS011;17063;50.892;4.702;2023-05-07T00:25:42;5.70;;;3.30;;
30247;SDS011;17063;50.892;4.702;2023-05-07T00:28:09;7.77;;;4.03;;
30247;SDS011;17063;50.892;4.702;2023-05-07T00:30:36;5.63;;;3.20;;
30247;SDS011;17063;50.892;4.702;2023-05-07T00:33:03;5.97;;;3.80;;
30247;SDS011;17063;50.892;4.702;2023-05-07T00:35:29;7.30;;;4.00;;
30247;SDS011;17063;50.892;4.702;2023-05-07T00:37:57;6.73;;;3.73;;
30247;SDS011;17063;50.892;4.702;2023-05-07T00:40:24;7.07;;;3.97;;
30247;SDS011;17063;50.892;4.702;2023-05-07T00:42:51;10.50;;;3.47;;
30247;SDS011;17063;50.892;4.702;2023-05-07T00:45:24;7.50;;;3.43;;
30247;SDS011;17063;50.892;4.702;2023-05-07T00:47:58;8.43;;;4.10;;
30247;SDS011;17063;50.892;4.702;2023-05-07T00:50:29;6.53;;;3.50;;
30247;SDS011;17063;50.892;4.702;2023-05-07T00:52:56;6.63;;;4.10;;
30247;SDS011;17063;50.892;4.702;2023-05-07T00:55:24;7.07;;;4.13;;
30247;SDS011;17063;50.892;4.702;2023-05-07T00:57:51;4.93;;;3.67;;
30247;SDS011;17063;50.892;4.702;2023-05-07T01:00:18;9.47;;;4.10;;
30247;SDS011;17063;50.892;4.702;2023-05-07T01:02:46;5.80;;;3.37;;
30247;SDS011;17063;50.892;4.702;2023-05-07T01:05:14;7.53;;;4.23;;
30247;SDS011;17063;50.892;4.702;2023-05-07T01:07:42;6.47;;;4.03;;
30247;SDS011;17063;50.892;4.702;2023-05-07T01:10:09;7.77;;;4.30;;
30247;SDS011;17063;50.892;4.702;2023-05-07T01:12:38;8.00;;;4.30;;
30247;SDS011;17063;50.892;4.702;2023-05-07T01:15:07;6.67;;;4.27;;
30247;SDS011;17063;50.892;4.702;2023-05-07T01:17:35;7.63;;;4.40;;
30247;SDS011;17063;50.892;4.702;2023-05-07T01:20:04;5.10;;;4.03;;
30247;SDS011;17063;50.892;4.702;2023-05-07T01:22:32;7.60;;;4.40;;
30247;SDS011;17063;50.892;4.702;2023-05-07T01:25:00;6.90;;;4.17;;
30247;SDS011;17063;50.892;4.702;2023-05-07T01:27:29;8.07;;;4.00;;
30247;SDS011;17063;50.892;4.702;2023-05-07T01:29:56;9.17;;;4.47;;
30247;SDS011;17063;50.892;4.702;2023-05-07T01:32:24;6.67;;;3.97;;
30247;SDS011;17063;50.892;4.702;2023-05-07T01:34:55;5.53;;;3.93;;
30247;SDS011;17063;50.892;4.702;2023-05-07T01:37:24;9.30;;;4.27;;
30247;SDS011;17063;50.892;4.702;2023-05-07T01:39:52;6.47;;;4.07;;
30247;SDS011;17063;50.892;4.702;2023-05-07T01:42:19;9.03;;;4.87;;
30247;SDS011;17063;50.892;4.702;2023-05-07T01:44:46;7.83;;;4.37;;
30247;SDS011;17063;50.892;4.702;2023-05-07T01:47:13;8.87;;;4.90;;
30247;SDS011;17063;50.892;4.702;2023-05-07T01:49:40;5.97;;;3.73;;
30247;SDS011;17063;50.892;4.702;2023-05-07T01:52:09;5.03;;;3.77;;
30247;SDS011;17063;50.892;4.702;2023-05-07T01:54:37;7.13;;;4.40;;
30247;SDS011;17063;50.892;4.702;2023-05-07T01:57:04;7.73;;;4.10;;
30247;SDS011;17063;50.892;4.702;2023-05-07T01:59:32;8.67;;;4.20;;
30247;SDS011;17063;50.892;4.702;2023-05-07T02:01:59;9.33;;;5.17;;
30247;SDS011;17063;50.892;4.702;2023-05-07T02:04:27;6.43;;;4.53;;
30247;SDS011;17063;50.892;4.702;2023-05-07T02:06:54;7.83;;;4.70;;
30247;SDS011;17063;50.892;4.702;2023-05-07T02:09:23;8.20;;;4.50;;
30247;SDS011;17063;50.892;4.702;2023-05-07T02:11:50;8.53;;;4.70;;
30247;SDS011;17063;50.892;4.702;2023-05-07T02:14:18;11.17;;;4.33;;
30247;SDS011;17063;50.892;4.702;2023-05-07T02:16:47;9.93;;;4.63;;
30247;SDS011;17063;50.892;4.702;2023-05-07T02:19:14;10.73;;;4.90;;
30247;SDS011;17063;50.892;4.702;2023-05-07T02:21:41;8.87;;;4.93;;
30247;SDS011;17063;50.892;4.702;2023-05-07T02:24:08;9.53;;;5.40;;
30247;SDS011;17063;50.892;4.702;2023-05-07T02:26:35;10.67;;;5.57;;
30247;SDS011;17063;50.892;4.702;2023-05-07T02:29:02;7.10;;;4.93;;
30247;SDS011;17063;50.892;4.702;2023-05-07T02:31:29;9.33;;;5.33;;
30247;SDS011;17063;50.892;4.702;2023-05-07T02:33:56;7.90;;;5.50;;
30247;SDS011;17063;50.892;4.702;2023-05-07T02:36:23;9.77;;;5.53;;
30247;SDS011;17063;50.892;4.702;2023-05-07T02:38:56;8.40;;;5.67;;
30247;SDS011;17063;50.892;4.702;2023-05-07T02:41:23;8.20;;;5.37;;
30247;SDS011;17063;50.892;4.702;2023-05-07T02:43:50;11.63;;;5.37;;
30247;SDS011;17063;50.892;4.702;2023-05-07T02:46:17;10.17;;;5.40;;
30247;SDS011;17063;50.892;4.702;2023-05-07T02:48:48;9.63;;;5.50;;
30247;SDS011;17063;50.892;4.702;2023-05-07T02:51:17;7.73;;;5.00;;
30247;SDS011;17063;50.892;4.702;2023-05-07T02:53:46;7.50;;;5.30;;
30247;SDS011;17063;50.892;4.702;2023-05-07T02:56:13;7.47;;;4.83;;
30247;SDS011;17063;50.892;4.702;2023-05-07T02:58:39;8.43;;;5.27;;
30247;SDS011;17063;50.892;4.702;2023-05-07T03:01:07;10.23;;;5.13;;
30247;SDS011;17063;50.892;4.702;2023-05-07T03:03:39;12.30;;;5.97;;
30247;SDS011;17063;50.892;4.702;2023-05-07T03:06:06;9.43;;;5.43;;
30247;SDS011;17063;50.892;4.702;2023-05-07T03:08:33;11.87;;;5.60;;
30247;SDS011;17063;50.892;4.702;2023-05-07T03:11:00;9.70;;;5.80;;
30247;SDS011;17063;50.892;4.702;2023-05-07T03:13:27;7.93;;;5.40;;
30247;SDS011;17063;50.892;4.702;2023-05-07T03:15:55;8.87;;;5.07;;
30247;SDS011;17063;50.892;4.702;2023-05-07T03:18:21;8.07;;;5.00;;
30247;SDS011;17063;50.892;4.702;2023-05-07T03:20:48;7.43;;;4.93;;
30247;SDS011;17063;50.892;4.702;2023-05-07T03:23:17;8.73;;;5.30;;
30247;SDS011;17063;50.892;4.702;2023-05-07T03:25:44;11.13;;;5.37;;
30247;SDS011;17063;50.892;4.702;2023-05-07T03:28:11;11.50;;;5.10;;
30247;SDS011;17063;50.892;4.702;2023-05-07T03:30:49;10.23;;;5.57;;
30247;SDS011;17063;50.892;4.702;2023-05-07T03:33:17;9.73;;;5.97;;
30247;SDS011;17063;50.892;4.702;2023-05-07T03:35:44;9.53;;;6.20;;
30247;SDS011;17063;50.892;4.702;2023-05-07T03:38:16;12.17;;;5.90;;
30247;SDS011;17063;50.892;4.702;2023-05-07T03:40:43;9.63;;;6.50;;
30247;SDS011;17063;50.892;4.702;2023-05-07T03:43:10;9.57;;;6.17;;
30247;SDS011;17063;50.892;4.702;2023-05-07T03:45:41;9.80;;;6.70;;
30247;SDS011;17063;50.892;4.702;2023-05-07T03:48:19;11.00;;;7.90;;
30247;SDS011;17063;50.892;4.702;2023-05-07T03:50:47;11.30;;;7.33;;
30247;SDS011;17063;50.892;4.702;2023-05-07T03:53:16;9.27;;;6.80;;
30247;SDS011;17063;50.892;4.702;2023-05-07T03:55:43;8.70;;;7.07;;
30247;SDS011;17063;50.892;4.702;2023-05-07T03:58:10;8.10;;;6.67;;
30247;SDS011;17063;50.892;4.702;2023-05-07T04:00:37;12.63;;;7.40;;
30247;SDS011;17063;50.892;4.702;2023-05-07T04:03:23;11.97;;;7.63;;
30247;SDS011;17063;50.892;4.702;2023-05-07T04:05:51;8.67;;;6.70;;
30247;SDS011;17063;50.892;4.702;2023-05-07T04:08:19;8.53;;;6.80;;
30247;SDS011;17063;50.892;4.702;2023-05-07T04:10:53;9.60;;;6.50;;
30247;SDS011;17063;50.892;4.702;2023-05-07T04:13:22;10.20;;;6.87;;
30247;SDS011;17063;50.892;4.702;2023-05-07T04:15:50;10.87;;;6.97;;
30247;SDS011;17063;50.892;4.702;2023-05-07T04:18:18;9.43;;;6.50;;
30247;SDS011;17063;50.892;4.702;2023-05-07T04:20:49;9.80;;;6.30;;
30247;SDS011;17063;50.892;4.702;2023-05-07T04:23:16;11.60;;;6.97;;
30247;SDS011;17063;50.892;4.702;2023-05-07T04:25:43;11.87;;;7.13;;
30247;SDS011;17063;50.892;4.702;2023-05-07T04:28:25;14.13;;;7.40;;
30247;SDS011;17063;50.892;4.702;2023-05-07T04:30:52;11.73;;;7.13;;
30247;SDS011;17063;50.892;4.702;2023-05-07T04:33:21;10.07;;;6.90;;
30247;SDS011;17063;50.892;4.702;2023-05-07T04:35:49;10.43;;;7.90;;
30247;SDS011;17063;50.892;4.702;2023-05-07T04:38:16;13.57;;;7.53;;
30247;SDS011;17063;50.892;4.702;2023-05-07T04:40:46;10.10;;;7.37;;
30247;SDS011;17063;50.892;4.702;2023-05-07T04:43:18;11.93;;;8.30;;
30247;SDS011;17063;50.892;4.702;2023-05-07T04:45:49;11.83;;;8.10;;
30247;SDS011;17063;50.892;4.702;2023-05-07T04:48:18;13.27;;;7.47;;
30247;SDS011;17063;50.892;4.702;2023-05-07T04:50:48;12.77;;;8.33;;
30247;SDS011;17063;50.892;4.702;2023-05-07T04:53:20;11.40;;;7.73;;
30247;SDS011;17063;50.892;4.702;2023-05-07T04:55:49;12.17;;;7.77;;
30247;SDS011;17063;50.892;4.702;2023-05-07T04:58:23;12.57;;;7.77;;
30247;SDS011;17063;50.892;4.702;2023-05-07T05:00:50;9.10;;;7.87;;
30247;SDS011;17063;50.892;4.702;2023-05-07T05:03:17;14.30;;;7.83;;
30247;SDS011;17063;50.892;4.702;2023-05-07T05:05:44;12.70;;;7.97;;
30247;SDS011;17063;50.892;4.702;2023-05-07T05:08:11;15.43;;;8.50;;
30247;SDS011;17063;50.892;4.702;2023-05-07T05:10:40;10.50;;;8.17;;
30247;SDS011;17063;50.892;4.702;2023-05-07T05:13:10;14.97;;;7.17;;
30247;SDS011;17063;50.892;4.702;2023-05-07T05:15:40;11.63;;;8.10;;
30247;SDS011;17063;50.892;4.702;2023-05-07T05:18:07;13.43;;;8.57;;
30247;SDS011;17063;50.892;4.702;2023-05-07T05:20:34;14.40;;;8.40;;
30247;SDS011;17063;50.892;4.702;2023-05-07T05:23:01;10.10;;;7.80;;
30247;SDS011;17063;50.892;4.702;2023-05-07T05:25:29;9.97;;;7.70;;
30247;SDS011;17063;50.892;4.702;2023-05-07T05:27:57;14.03;;;7.17;;
30247;SDS011;17063;50.892;4.702;2023-05-07T05:30:24;9.67;;;7.47;;
30247;SDS011;17063;50.892;4.702;2023-05-07T05:32:52;11.80;;;7.77;;
30247;SDS011;17063;50.892;4.702;2023-05-07T05:35:19;10.40;;;7.23;;
30247;SDS011;17063;50.892;4.702;2023-05-07T05:37:46;10.97;;;8.03;;
30247;SDS011;17063;50.892;4.702;2023-05-07T05:40:13;11.53;;;7.53;;
30247;SDS011;17063;50.892;4.702;2023-05-07T05:42:39;10.53;;;7.43;;
30247;SDS011;17063;50.892;4.702;2023-05-07T05:45:08;18.33;;;8.57;;
30247;SDS011;17063;50.892;4.702;2023-05-07T05:47:37;12.53;;;7.30;;
30247;SDS011;17063;50.892;4.702;2023-05-07T05:50:04;13.50;;;7.20;;
30247;SDS011;17063;50.892;4.702;2023-05-07T05:52:32;12.57;;;7.77;;
30247;SDS011;17063;50.892;4.702;2023-05-07T05:55:00;14.33;;;7.87;;
30247;SDS011;17063;50.892;4.702;2023-05-07T05:57:27;13.90;;;7.90;;
30247;SDS011;17063;50.892;4.702;2023-05-07T05:59:55;15.30;;;7.40;;
30247;SDS011;17063;50.892;4.702;2023-05-07T06:02:22;10.83;;;7.13;;
30247;SDS011;17063;50.892;4.702;2023-05-07T06:04:50;11.37;;;7.10;;
30247;SDS011;17063;50.892;4.702;2023-05-07T06:07:19;14.47;;;7.67;;
30247;SDS011;17063;50.892;4.702;2023-05-07T06:09:45;11.13;;;7.00;;
30247;SDS011;17063;50.892;4.702;2023-05-07T06:12:12;13.00;;;7.43;;
30247;SDS011;17063;50.892;4.702;2023-05-07T06:14:39;12.77;;;7.43;;
30247;SDS011;17063;50.892;4.702;2023-05-07T06:17:07;12.20;;;7.17;;
30247;SDS011;17063;50.892;4.702;2023-05-07T06:19:34;12.47;;;7.50;;
30247;SDS011;17063;50.892;4.702;2023-05-07T06:22:02;9.40;;;6.53;;
30247;SDS011;17063;50.892;4.702;2023-05-07T06:24:30;9.43;;;6.13;;
30247;SDS011;17063;50.892;4.702;2023-05-07T06:26:57;12.40;;;5.87;;
30247;SDS011;17063;50.892;4.702;2023-05-07T06:29:26;9.07;;;5.80;;
30247;SDS011;17063;50.892;4.702;2023-05-07T06:31:53;10.40;;;5.97;;
30247;SDS011;17063;50.892;4.702;2023-05-07T06:34:21;9.37;;;5.40;;
30247;SDS011;17063;50.892;4.702;2023-05-07T06:36:49;9.67;;;5.83;;
30247;SDS011;17063;50.892;4.702;2023-05-07T06:39:25;14.97;;;5.87;;
30247;SDS011;17063;50.892;4.702;2023-05-07T06:41:52;10.10;;;5.77;;
30247;SDS011;17063;50.892;4.702;2023-05-07T06:44:26;8.27;;;4.53;;
30247;SDS011;17063;50.892;4.702;2023-05-07T06:47:14;11.57;;;4.93;;
30247;SDS011;17063;50.892;4.702;2023-05-07T06:49:44;12.10;;;4.33;;
30247;SDS011;17063;50.892;4.702;2023-05-07T06:52:15;11.30;;;4.87;;
30247;SDS011;17063;50.892;4.702;2023-05-07T06:54:42;8.90;;;4.80;;
30247;SDS011;17063;50.892;4.702;2023-05-07T06:57:10;12.83;;;4.57;;
30247;SDS011;17063;50.892;4.702;2023-05-07T06:59:37;7.57;;;4.33;;
30247;SDS011;17063;50.892;4.702;2023-05-07T07:02:03;11.63;;;4.37;;
30247;SDS011;17063;50.892;4.702;2023-05-07T07:04:30;7.73;;;4.30;;
30247;SDS011;17063;50.892;4.702;2023-05-07T07:07:02;9.70;;;4.30;;
30247;SDS011;17063;50.892;4.702;2023-05-07T07:09:29;9.27;;;4.23;;
30247;SDS011;17063;50.892;4.702;2023-05-07T07:11:56;11.30;;;4.60;;
30247;SDS011;17063;50.892;4.702;2023-05-07T07:14:24;10.97;;;4.10;;
30247;SDS011;17063;50.892;4.702;2023-05-07T07:16:52;7.73;;;3.50;;
30247;SDS011;17063;50.892;4.702;2023-05-07T07:19:21;11.30;;;4.10;;
30247;SDS011;17063;50.892;4.702;2023-05-07T07:21:51;9.47;;;3.77;;
30247;SDS011;17063;50.892;4.702;2023-05-07T07:24:18;9.83;;;3.90;;
30247;SDS011;17063;50.892;4.702;2023-05-07T07:26:52;7.33;;;3.63;;
30247;SDS011;17063;50.892;4.702;2023-05-07T07:29:23;5.63;;;3.40;;
30247;SDS011;17063;50.892;4.702;2023-05-07T07:31:52;5.47;;;3.07;;
30247;SDS011;17063;50.892;4.702;2023-05-07T07:34:20;9.40;;;3.00;;
30247;SDS011;17063;50.892;4.702;2023-05-07T07:36:47;8.70;;;2.97;;
30247;SDS011;17063;50.892;4.702;2023-05-07T07:39:17;8.37;;;3.00;;
30247;SDS011;17063;50.892;4.702;2023-05-07T07:41:46;7.53;;;2.70;;
30247;SDS011;17063;50.892;4.702;2023-05-07T07:44:14;8.03;;;2.57;;
30247;SDS011;17063;50.892;4.702;2023-05-07T07:46:46;9.47;;;3.07;;
30247;SDS011;17063;50.892;4.702;2023-05-07T07:49:14;7.23;;;2.83;;
30247;SDS011;17063;50.892;4.702;2023-05-07T07:51:42;6.53;;;2.87;;
30247;SDS011;17063;50.892;4.702;2023-05-07T07:54:10;6.53;;;3.20;;
30247;SDS011;17063;50.892;4.702;2023-05-07T07:56:38;10.33;;;4.00;;
30247;SDS011;17063;50.892;4.702;2023-05-07T07:59:06;11.27;;;3.33;;
30247;SDS011;17063;50.892;4.702;2023-05-07T08:01:36;10.80;;;3.87;;
30247;SDS011;17063;50.892;4.702;2023-05-07T08:04:04;10.73;;;3.80;;
30247;SDS011;17063;50.892;4.702;2023-05-07T08:06:35;10.67;;;3.97;;
30247;SDS011;17063;50.892;4.702;2023-05-07T08:09:02;10.60;;;3.83;;
30247;SDS011;17063;50.892;4.702;2023-05-07T08:11:29;10.03;;;3.30;;
30247;SDS011;17063;50.892;4.702;2023-05-07T08:13:57;8.63;;;3.33;;
30247;SDS011;17063;50.892;4.702;2023-05-07T08:16:24;6.63;;;3.07;;
30247;SDS011;17063;50.892;4.702;2023-05-07T08:18:52;5.27;;;2.77;;
30247;SDS011;17063;50.892;4.702;2023-05-07T08:21:18;5.63;;;3.30;;
30247;SDS011;17063;50.892;4.702;2023-05-07T08:23:46;5.73;;;2.77;;
30247;SDS011;17063;50.892;4.702;2023-05-07T08:26:13;7.37;;;2.73;;
30247;SDS011;17063;50.892;4.702;2023-05-07T08:28:41;7.77;;;2.80;;
30247;SDS011;17063;50.892;4.702;2023-05-07T08:31:08;7.40;;;3.07;;
30247;SDS011;17063;50.892;4.702;2023-05-07T08:33:38;5.43;;;2.70;;
30247;SDS011;17063;50.892;4.702;2023-05-07T08:36:05;5.17;;;2.37;;
30247;SDS011;17063;50.892;4.702;2023-05-07T08:38:33;6.33;;;2.60;;
30247;SDS011;17063;50.892;4.702;2023-05-07T08:41:00;6.30;;;2.53;;
30247;SDS011;17063;50.892;4.702;2023-05-07T08:43:29;8.67;;;3.57;;
30247;SDS011;17063;50.892;4.702;2023-05-07T08:45:59;8.63;;;3.07;;
30247;SDS011;17063;50.892;4.702;2023-05-07T08:48:32;4.83;;;3.07;;
30247;SDS011;17063;50.892;4.702;2023-05-07T08:51:15;5.93;;;3.00;;
30247;SDS011;17063;50.892;4.702;2023-05-07T08:53:42;5.63;;;3.00;;
30247;SDS011;17063;50.892;4.702;2023-05-07T08:56:14;6.70;;;3.30;;
30247;SDS011;17063;50.892;4.702;2023-05-07T08:58:47;4.67;;;2.60;;
30247;SDS011;17063;50.892;4.702;2023-05-07T09:01:24;4.53;;;2.60;;
30247;SDS011;17063;50.892;4.702;2023-05-07T09:03:52;6.33;;;2.57;;
30247;SDS011;17063;50.892;4.702;2023-05-07T09:06:20;4.93;;;2.63;;
30247;SDS011;17063;50.892;4.702;2023-05-07T09:08:51;8.20;;;2.50;;
30247;SDS011;17063;50.892;4.702;2023-05-07T09:11:20;4.80;;;3.00;;
30247;SDS011;17063;50.892;4.702;2023-05-07T09:13:54;6.43;;;2.93;;
30247;SDS011;17063;50.892;4.702;2023-05-07T09:16:31;5.07;;;2.60;;
30247;SDS011;17063;50.892;4.702;2023-05-07T09:18:59;6.13;;;2.43;;
30247;SDS011;17063;50.892;4.702;2023-05-07T09:21:28;6.37;;;2.70;;
30247;SDS011;17063;50.892;4.702;2023-05-07T09:23:58;7.90;;;2.73;;
30247;SDS011;17063;50.892;4.702;2023-05-07T09:26:35;6.33;;;2.80;;
30247;SDS011;17063;50.892;4.702;2023-05-07T09:29:04;7.80;;;3.13;;
30247;SDS011;17063;50.892;4.702;2023-05-07T09:31:30;7.53;;;2.93;;
30247;SDS011;17063;50.892;4.702;2023-05-07T09:33:58;8.43;;;2.80;;
30247;SDS011;17063;50.892;4.702;2023-05-07T09:36:28;5.20;;;2.73;;
30247;SDS011;17063;50.892;4.702;2023-05-07T09:38:56;5.70;;;2.57;;
30247;SDS011;17063;50.892;4.702;2023-05-07T09:41:26;4.03;;;2.40;;
30247;SDS011;17063;50.892;4.702;2023-05-07T09:44:03;5.03;;;2.80;;
30247;SDS011;17063;50.892;4.702;2023-05-07T09:46:38;5.13;;;2.73;;
30247;SDS011;17063;50.892;4.702;2023-05-07T09:49:23;6.57;;;2.93;;
30247;SDS011;17063;50.892;4.702;2023-05-07T09:51:59;6.27;;;2.73;;
30247;SDS011;17063;50.892;4.702;2023-05-07T09:54:29;5.57;;;2.60;;
30247;SDS011;17063;50.892;4.702;2023-05-07T09:56:57;4.63;;;2.67;;
30247;SDS011;17063;50.892;4.702;2023-05-07T09:59:27;6.97;;;2.40;;
30247;SDS011;17063;50.892;4.702;2023-05-07T10:01:58;6.83;;;2.30;;
30247;SDS011;17063;50.892;4.702;2023-05-07T10:04:34;7.13;;;3.23;;
30247;SDS011;17063;50.892;4.702;2023-05-07T10:07:02;7.03;;;2.80;;
30247;SDS011;17063;50.892;4.702;2023-05-07T10:09:30;7.43;;;3.20;;
30247;SDS011;17063;50.892;4.702;2023-05-07T10:11:57;7.33;;;2.93;;
30247;SDS011;17063;50.892;4.702;2023-05-07T10:14:25;7.57;;;3.40;;
30247;SDS011;17063;50.892;4.702;2023-05-07T10:16:54;8.00;;;2.63;;
30247;SDS011;17063;50.892;4.702;2023-05-07T10:19:25;5.47;;;3.03;;
30247;SDS011;17063;50.892;4.702;2023-05-07T10:21:55;7.97;;;2.60;;
30247;SDS011;17063;50.892;4.702;2023-05-07T10:24:26;3.40;;;2.30;;
30247;SDS011;17063;50.892;4.702;2023-05-07T10:26:57;7.07;;;2.37;;
30247;SDS011;17063;50.892;4.702;2023-05-07T10:29:45;4.80;;;2.43;;
30247;SDS011;17063;50.892;4.702;2023-05-07T10:35:04;5.50;;;2.33;;
30247;SDS011;17063;50.892;4.702;2023-05-07T10:37:36;6.20;;;2.63;;
30247;SDS011;17063;50.892;4.702;2023-05-07T10:40:03;4.97;;;2.37;;
30247;SDS011;17063;50.892;4.702;2023-05-07T10:42:33;6.07;;;2.57;;
30247;SDS011;17063;50.892;4.702;2023-05-07T10:45:13;7.07;;;3.17;;
30247;SDS011;17063;50.892;4.702;2023-05-07T10:54:37;3.27;;;1.93;;
30247;SDS011;17063;50.892;4.702;2023-05-07T10:56:46;4.20;;;1.90;;
30247;SDS011;17063;50.892;4.702;2023-05-07T11:02:00;4.33;;;1.90;;
30247;SDS011;17063;50.892;4.702;2023-05-07T11:07:56;3.87;;;1.80;;
30247;SDS011;17063;50.892;4.702;2023-05-07T11:13:42;5.43;;;2.40;;
30247;SDS011;17063;50.892;4.702;2023-05-07T11:16:19;6.67;;;2.67;;
30247;SDS011;17063;50.892;4.702;2023-05-07T11:19:04;4.37;;;1.90;;
30247;SDS011;17063;50.892;4.702;2023-05-07T11:21:40;8.53;;;2.70;;
30247;SDS011;17063;50.892;4.702;2023-05-07T11:24:39;5.20;;;2.27;;
30247;SDS011;17063;50.892;4.702;2023-05-07T11:27:07;2.70;;;2.00;;
30247;SDS011;17063;50.892;4.702;2023-05-07T11:29:35;5.50;;;2.57;;
30247;SDS011;17063;50.892;4.702;2023-05-07T11:32:06;5.27;;;1.90;;
30247;SDS011;17063;50.892;4.702;2023-05-07T11:34:42;7.27;;;2.27;;
30247;SDS011;17063;50.892;4.702;2023-05-07T11:37:09;6.13;;;2.07;;
30247;SDS011;17063;50.892;4.702;2023-05-07T11:39:45;5.93;;;1.73;;
30247;SDS011;17063;50.892;4.702;2023-05-07T11:44:58;5.47;;;1.40;;
30247;SDS011;17063;50.892;4.702;2023-05-07T11:47:25;6.30;;;1.90;;
30247;SDS011;17063;50.892;4.702;2023-05-07T11:49:53;7.27;;;1.73;;
30247;SDS011;17063;50.892;4.702;2023-05-07T11:52:21;5.87;;;1.80;;
30247;SDS011;17063;50.892;4.702;2023-05-07T11:54:52;4.77;;;1.80;;
30247;SDS011;17063;50.892;4.702;2023-05-07T11:57:24;6.17;;;1.97;;
30247;SDS011;17063;50.892;4.702;2023-05-07T11:59:55;6.30;;;1.80;;
30247;SDS011;17063;50.892;4.702;2023-05-07T12:02:23;4.17;;;1.70;;
30247;SDS011;17063;50.892;4.702;2023-05-07T12:04:51;7.20;;;2.03;;
30247;SDS011;17063;50.892;4.702;2023-05-07T12:07:19;5.63;;;1.73;;
30247;SDS011;17063;50.892;4.702;2023-05-07T12:09:47;6.70;;;1.80;;
30247;SDS011;17063;50.892;4.702;2023-05-07T12:12:14;6.23;;;1.80;;
30247;SDS011;17063;50.892;4.702;2023-05-07T12:14:42;5.60;;;1.77;;
30247;SDS011;17063;50.892;4.702;2023-05-07T12:17:11;5.23;;;1.43;;
30247;SDS011;17063;50.892;4.702;2023-05-07T12:19:39;4.33;;;1.63;;
30247;SDS011;17063;50.892;4.702;2023-05-07T12:22:10;4.07;;;1.63;;
30247;SDS011;17063;50.892;4.702;2023-05-07T12:27:14;4.40;;;1.80;;
30247;SDS011;17063;50.892;4.702;2023-05-07T12:29:48;4.70;;;1.93;;
30247;SDS011;17063;50.892;4.702;2023-05-07T12:32:17;5.33;;;2.30;;
30247;SDS011;17063;50.892;4.702;2023-05-07T12:34:45;5.03;;;1.80;;
30247;SDS011;17063;50.892;4.702;2023-05-07T12:37:12;5.30;;;2.10;;
30247;SDS011;17063;50.892;4.702;2023-05-07T12:40:02;5.97;;;1.77;;
30247;SDS011;17063;50.892;4.702;2023-05-07T12:42:33;3.50;;;1.70;;
30247;SDS011;17063;50.892;4.702;2023-05-07T12:45:09;3.13;;;1.60;;
30247;SDS011;17063;50.892;4.702;2023-05-07T12:47:37;4.27;;;1.90;;
30247;SDS011;17063;50.892;4.702;2023-05-07T12:50:05;7.13;;;2.30;;
30247;SDS011;17063;50.892;4.702;2023-05-07T12:52:33;3.33;;;1.60;;
30247;SDS011;17063;50.892;4.702;2023-05-07T12:55:06;3.97;;;1.57;;
30247;SDS011;17063;50.892;4.702;2023-05-07T12:57:41;4.47;;;1.57;;
30247;SDS011;17063;50.892;4.702;2023-05-07T13:00:09;6.27;;;2.20;;
30247;SDS011;17063;50.892;4.702;2023-05-07T13:02:40;3.40;;;1.57;;
30247;SDS011;17063;50.892;4.702;2023-05-07T13:05:14;4.83;;;1.83;;
30247;SDS011;17063;50.892;4.702;2023-05-07T13:07:40;5.33;;;1.93;;
30247;SDS011;17063;50.892;4.702;2023-05-07T13:10:19;9.47;;;2.07;;
30247;SDS011;17063;50.892;4.702;2023-05-07T13:12:46;3.47;;;1.60;;
30247;SDS011;17063;50.892;4.702;2023-05-07T13:15:13;4.00;;;1.60;;
30247;SDS011;17063;50.892;4.702;2023-05-07T13:17:40;4.57;;;1.60;;
30247;SDS011;17063;50.892;4.702;2023-05-07T13:20:09;3.20;;;1.77;;
30247;SDS011;17063;50.892;4.702;2023-05-07T13:22:36;3.00;;;1.60;;
30247;SDS011;17063;50.892;4.702;2023-05-07T13:25:03;3.57;;;2.03;;
30247;SDS011;17063;50.892;4.702;2023-05-07T13:27:30;7.67;;;2.30;;
30247;SDS011;17063;50.892;4.702;2023-05-07T13:29:57;6.53;;;2.13;;
30247;SDS011;17063;50.892;4.702;2023-05-07T13:32:24;3.90;;;1.87;;
30247;SDS011;17063;50.892;4.702;2023-05-07T13:34:51;2.87;;;1.70;;
30247;SDS011;17063;50.892;4.702;2023-05-07T13:37:18;3.97;;;1.60;;
30247;SDS011;17063;50.892;4.702;2023-05-07T13:39:45;4.37;;;1.90;;
30247;SDS011;17063;50.892;4.702;2023-05-07T13:42:12;5.10;;;1.90;;
30247;SDS011;17063;50.892;4.702;2023-05-07T13:44:38;3.87;;;2.10;;
30247;SDS011;17063;50.892;4.702;2023-05-07T13:47:05;4.07;;;1.87;;
30247;SDS011;17063;50.892;4.702;2023-05-07T13:49:32;3.70;;;1.80;;
30247;SDS011;17063;50.892;4.702;2023-05-07T13:51:59;2.40;;;1.60;;
30247;SDS011;17063;50.892;4.702;2023-05-07T13:54:26;2.90;;;1.80;;
30247;SDS011;17063;50.892;4.702;2023-05-07T13:56:53;8.00;;;2.00;;
30247;SDS011;17063;50.892;4.702;2023-05-07T13:59:19;4.47;;;1.87;;
30247;SDS011;17063;50.892;4.702;2023-05-07T14:01:46;5.43;;;1.90;;
30247;SDS011;17063;50.892;4.702;2023-05-07T14:04:13;4.37;;;2.00;;
30247;SDS011;17063;50.892;4.702;2023-05-07T14:06:40;5.03;;;1.57;;
30247;SDS011;17063;50.892;4.702;2023-05-07T14:09:07;5.50;;;2.10;;
30247;SDS011;17063;50.892;4.702;2023-05-07T14:11:34;3.43;;;1.70;;
30247;SDS011;17063;50.892;4.702;2023-05-07T14:14:10;3.30;;;1.60;;
30247;SDS011;17063;50.892;4.702;2023-05-07T14:16:39;3.17;;;1.57;;
30247;SDS011;17063;50.892;4.702;2023-05-07T14:19:06;4.57;;;1.90;;
30247;SDS011;17063;50.892;4.702;2023-05-07T14:21:33;4.27;;;2.00;;
30247;SDS011;17063;50.892;4.702;2023-05-07T14:24:00;4.10;;;1.67;;
30247;SDS011;17063;50.892;4.702;2023-05-07T14:26:27;3.37;;;1.70;;
30247;SDS011;17063;50.892;4.702;2023-05-07T14:28:57;2.40;;;1.73;;
30247;SDS011;17063;50.892;4.702;2023-05-07T14:31:26;5.67;;;1.80;;
30247;SDS011;17063;50.892;4.702;2023-05-07T14:33:53;3.03;;;1.50;;
30247;SDS011;17063;50.892;4.702;2023-05-07T14:36:20;2.63;;;1.77;;
30247;SDS011;17063;50.892;4.702;2023-05-07T14:38:53;4.13;;;1.87;;
30247;SDS011;17063;50.892;4.702;2023-05-07T14:41:21;4.17;;;1.53;;
30247;SDS011;17063;50.892;4.702;2023-05-07T14:43:48;1.97;;;1.63;;
30247;SDS011;17063;50.892;4.702;2023-05-07T14:46:18;2.70;;;1.67;;
30247;SDS011;17063;50.892;4.702;2023-05-07T14:48:45;6.67;;;1.60;;
30247;SDS011;17063;50.892;4.702;2023-05-07T14:51:12;3.10;;;1.80;;
30247;SDS011;17063;50.892;4.702;2023-05-07T14:53:40;4.20;;;1.80;;
30247;SDS011;17063;50.892;4.702;2023-05-07T14:56:08;6.27;;;2.20;;
30247;SDS011;17063;50.892;4.702;2023-05-07T14:58:35;3.67;;;1.80;;
30247;SDS011;17063;50.892;4.702;2023-05-07T15:01:01;3.93;;;2.07;;
30247;SDS011;17063;50.892;4.702;2023-05-07T15:03:28;2.43;;;1.83;;
30247;SDS011;17063;50.892;4.702;2023-05-07T15:05:56;2.67;;;1.60;;
30247;SDS011;17063;50.892;4.702;2023-05-07T15:08:22;4.23;;;1.80;;
30247;SDS011;17063;50.892;4.702;2023-05-07T15:10:50;3.67;;;2.00;;
30247;SDS011;17063;50.892;4.702;2023-05-07T15:13:17;4.87;;;2.03;;
30247;SDS011;17063;50.892;4.702;2023-05-07T15:15:44;2.87;;;1.77;;
30247;SDS011;17063;50.892;4.702;2023-05-07T15:18:11;2.43;;;1.70;;
30247;SDS011;17063;50.892;4.702;2023-05-07T15:20:38;4.00;;;1.73;;